createdAt,value
2018-06-28T00:00:11.442Z,1052
2018-06-28T00:01:11.461Z,1051.94
2018-06-28T00:02:11.460Z,1051.7
2018-06-28T00:03:11.468Z,1051.39
2018-06-28T00:04:11.498Z,1051.61
2018-06-28T00:05:11.489Z,1051.69
2018-06-28T00:06:11.453Z,1051.54
2018-06-28T00:07:11.497Z,1051.6
2018-06-28T00:08:11.493Z,1051.56
2018-06-28T00:09:11.476Z,1051.57
2018-06-28T00:10:11.541Z,1051.5
2018-06-28T00:11:11.495Z,1051.42
2018-06-28T00:12:11.493Z,1051.47
2018-06-28T00:13:11.483Z,1051.52
2018-06-28T00:14:11.485Z,1051.26
2018-06-28T00:15:11.495Z,1051.4
2018-06-28T00:16:11.500Z,1051.26
2018-06-28T00:17:11.500Z,1051.48
2018-06-28T00:18:11.517Z,1051.38
2018-06-28T00:19:11.501Z,1051.39
2018-06-28T00:20:11.468Z,1051.37
2018-06-28T00:21:11.489Z,1051.29
2018-06-28T00:22:11.534Z,1051.26
2018-06-28T00:23:11.492Z,1051.48
2018-06-28T00:24:11.506Z,1051.09
2018-06-28T00:25:11.485Z,1051.02
2018-06-28T00:26:11.500Z,1051.14
2018-06-28T00:27:11.506Z,1051.07
2018-06-28T00:28:11.498Z,1051.41
2018-06-28T00:29:11.501Z,1051.05
2018-06-28T00:30:11.490Z,1051.04
2018-06-28T00:31:11.515Z,1051.26
2018-06-28T00:32:11.548Z,1050.98
2018-06-28T00:33:11.510Z,1051.06
2018-06-28T00:34:11.517Z,1050.82
2018-06-28T00:35:11.523Z,1050.81
2018-06-28T00:36:11.518Z,1050.98
2018-06-28T00:37:11.538Z,1050.83
2018-06-28T00:38:11.564Z,1050.88
2018-06-28T00:39:11.523Z,1050.73
2018-06-28T00:40:11.549Z,1050.86
2018-06-28T00:41:11.512Z,1050.85
2018-06-28T00:42:11.518Z,1050.62
2018-06-28T00:43:11.573Z,1050.87
2018-06-28T00:44:11.892Z,1050.96
2018-06-28T00:45:11.529Z,1051.14
2018-06-28T00:46:11.538Z,1051.18
2018-06-28T00:47:11.518Z,1051.04
2018-06-28T00:48:11.534Z,1050.93
2018-06-28T00:49:11.532Z,1051.23
2018-06-28T00:50:11.539Z,1051.12
2018-06-28T00:51:11.556Z,1051.17
2018-06-28T00:52:11.535Z,1051.56
2018-06-28T00:53:11.559Z,1051.57
2018-06-28T00:54:11.548Z,1052.16
2018-06-28T00:55:11.555Z,1051.99
2018-06-28T00:56:11.550Z,1052.03
2018-06-28T00:57:11.542Z,1052.12
2018-06-28T00:58:11.572Z,1052.13
2018-06-28T00:59:11.544Z,1052.01
2018-06-28T01:00:11.550Z,1052.07
2018-06-28T01:01:11.556Z,1052.09
2018-06-28T01:02:11.539Z,1051.69
2018-06-28T01:03:11.559Z,1051.92
2018-06-28T01:04:11.607Z,1051.81
2018-06-28T01:05:11.561Z,1051.97
2018-06-28T01:06:11.573Z,1051.79
2018-06-28T01:07:11.578Z,1051.77
2018-06-28T01:08:11.584Z,1051.86
2018-06-28T01:09:11.584Z,1051.72
2018-06-28T01:10:11.567Z,1051.57
2018-06-28T01:11:11.597Z,1051.98
2018-06-28T01:12:11.566Z,1052.04
2018-06-28T01:13:11.585Z,1052.04
2018-06-28T01:14:11.572Z,1052.18
2018-06-28T01:15:11.584Z,1052.82
2018-06-28T01:16:11.587Z,1053
2018-06-28T01:17:11.593Z,1053.58
2018-06-28T01:18:11.591Z,1053.5
2018-06-28T01:19:12.930Z,1053.42
2018-06-28T01:20:11.590Z,1053.49
2018-06-28T01:21:11.599Z,1053.49
2018-06-28T01:24:18.851Z,1053.77
2018-06-28T01:24:30.349Z,1053.99
2018-06-28T01:25:30.326Z,1053.95
2018-06-28T01:26:30.341Z,1054.19
2018-06-28T01:27:30.323Z,1053.73
2018-06-28T01:28:30.329Z,1053.61
2018-06-28T01:29:30.337Z,1053.53
2018-06-28T01:30:30.338Z,1053.85
2018-06-28T01:31:30.340Z,1053.55
2018-06-28T01:32:30.326Z,1053.7
2018-06-28T01:33:30.340Z,1053.43
2018-06-28T01:34:30.361Z,1053.63
2018-06-28T01:35:30.368Z,1053.47
2018-06-28T01:36:30.353Z,1053.46
2018-06-28T01:37:30.355Z,1053.31
2018-06-28T01:38:30.397Z,1053.14
2018-06-28T01:39:30.352Z,1053.36
2018-06-28T01:40:30.391Z,1053.53
2018-06-28T01:41:30.391Z,1053.87
2018-06-28T01:42:30.364Z,1054.37
2018-06-28T01:43:30.352Z,1054.45
2018-06-28T01:44:30.360Z,1054.89
2018-06-28T01:45:30.358Z,1054.66
2018-06-28T01:46:30.373Z,1054.66
2018-06-28T01:47:30.419Z,1054.69
2018-06-28T01:48:30.397Z,1054.52
2018-06-28T01:49:30.387Z,1054.48
2018-06-28T01:50:30.371Z,1054.15
2018-06-28T01:51:30.376Z,1054.1
2018-06-28T01:52:30.385Z,1053.8
2018-06-28T01:53:30.386Z,1053.69
2018-06-28T01:54:30.676Z,1053.76
2018-06-28T01:55:30.392Z,1053.85
2018-06-28T01:56:30.390Z,1053.95
2018-06-28T01:57:30.411Z,1053.76
2018-06-28T01:58:30.400Z,1053.96
2018-06-28T01:59:30.400Z,1053.88
2018-06-28T02:00:30.455Z,1053.93
2018-06-28T02:01:30.420Z,1053.99
2018-06-28T02:02:30.414Z,1054.4
2018-06-28T02:03:30.405Z,1054.31
2018-06-28T02:04:30.415Z,1054.73
2018-06-28T02:05:30.393Z,1054.89
2018-06-28T02:06:30.388Z,1054.75
2018-06-28T02:07:30.408Z,1054.56
2018-06-28T02:08:30.412Z,1054.88
2018-06-28T02:09:30.397Z,1054.37
2018-06-28T02:10:30.414Z,1054.58
2018-06-28T02:11:30.408Z,1054.65
2018-06-28T02:12:30.404Z,1054.57
2018-06-28T02:13:30.437Z,1054.47
2018-06-28T02:14:30.402Z,1054.4
2018-06-28T02:15:30.448Z,1054.25
2018-06-28T02:16:30.429Z,1054.05
2018-06-28T02:17:30.412Z,1054.31
2018-06-28T02:18:30.419Z,1054.27
2018-06-28T02:19:30.421Z,1054.29
2018-06-28T02:20:30.419Z,1054.19
2018-06-28T02:21:30.438Z,1054.26
2018-06-28T02:22:30.495Z,1054.43
2018-06-28T02:23:30.483Z,1054.55
2018-06-28T02:24:30.766Z,1054.53
2018-06-28T02:25:30.462Z,1054.55
2018-06-28T02:26:30.454Z,1055.54
2018-06-28T02:27:30.427Z,1056.42
2018-06-28T02:28:30.471Z,1056.97
2018-06-28T02:29:30.438Z,1057.2
2018-06-28T02:30:30.443Z,1057.41
2018-06-28T02:31:30.452Z,1057.15
2018-06-28T02:32:30.458Z,1057.16
2018-06-28T02:33:30.441Z,1057.1
2018-06-28T02:34:30.446Z,1057.02
2018-06-28T02:35:30.437Z,1056.77
2018-06-28T02:36:30.460Z,1056.58
2018-06-28T02:37:30.444Z,1056.51
2018-06-28T02:38:30.445Z,1056.44
2018-06-28T02:39:30.459Z,1056.29
2018-06-28T02:40:30.464Z,1056.34
2018-06-28T02:41:30.463Z,1056.15
2018-06-28T02:42:30.478Z,1056.11
2018-06-28T02:43:30.484Z,1056.1
2018-06-28T02:44:30.460Z,1055.48
2018-06-28T02:45:30.478Z,1055.8
2018-06-28T02:46:30.485Z,1055.59
2018-06-28T02:47:30.477Z,1055.89
2018-06-28T02:48:30.470Z,1055.73
2018-06-28T02:49:30.479Z,1055.86
2018-06-28T02:50:30.487Z,1055.74
2018-06-28T02:51:30.478Z,1055.96
2018-06-28T02:52:30.500Z,1056.09
2018-06-28T02:53:30.466Z,1056.32
2018-06-28T02:54:30.497Z,1056.1
2018-06-28T02:55:30.506Z,1056.18
2018-06-28T02:56:30.496Z,1056.28
2018-06-28T02:57:30.499Z,1056.19
2018-06-28T02:58:30.488Z,1056.13
2018-06-28T02:59:30.505Z,1055.88
2018-06-28T03:00:30.490Z,1055.89
2018-06-28T03:01:30.529Z,1055.89
2018-06-28T03:02:30.517Z,1055.68
2018-06-28T03:03:30.532Z,1055.59
2018-06-28T03:04:30.492Z,1055.59
2018-06-28T03:05:30.521Z,1055.45
2018-06-28T03:06:30.527Z,1055.68
2018-06-28T03:07:30.511Z,1055.82
2018-06-28T03:08:30.545Z,1055.89
2018-06-28T03:09:30.525Z,1055.98
2018-06-28T03:10:30.525Z,1056.16
2018-06-28T03:11:30.521Z,1056.38
2018-06-28T03:12:30.518Z,1056.46
2018-06-28T03:13:30.520Z,1056.56
2018-06-28T03:14:30.507Z,1056.53
2018-06-28T03:15:30.545Z,1056.69
2018-06-28T03:16:30.551Z,1056.68
2018-06-28T03:17:30.524Z,1056.71
2018-06-28T03:18:30.559Z,1056.67
2018-06-28T03:19:30.533Z,1056.77
2018-06-28T03:20:30.565Z,1057.05
2018-06-28T03:21:30.523Z,1056.93
2018-06-28T03:22:30.547Z,1057.07
2018-06-28T03:23:30.598Z,1057.19
2018-06-28T03:24:30.528Z,1057
2018-06-28T03:25:30.531Z,1056.91
2018-06-28T03:26:30.579Z,1057.1
2018-06-28T03:27:30.537Z,1057.11
2018-06-28T03:28:30.566Z,1057.22
2018-06-28T03:29:30.560Z,1057.09
2018-06-28T03:30:30.564Z,1057.17
2018-06-28T03:31:30.542Z,1057.15
2018-06-28T03:32:30.547Z,1057.3
2018-06-28T03:33:30.549Z,1057.49
2018-06-28T03:34:30.555Z,1058.14
2018-06-28T03:35:30.548Z,1058.76
2018-06-28T03:36:30.554Z,1059.21
2018-06-28T03:37:30.548Z,1059.57
2018-06-28T03:38:30.560Z,1059.55
2018-06-28T03:39:30.588Z,1059.57
2018-06-28T03:40:30.569Z,1059.37
2018-06-28T03:41:30.571Z,1059.25
2018-06-28T03:42:30.563Z,1059
2018-06-28T03:43:30.573Z,1058.86
2018-06-28T03:44:30.568Z,1058.71
2018-06-28T03:45:30.570Z,1058.43
2018-06-28T03:46:30.580Z,1058.4
2018-06-28T03:47:30.599Z,1058.13
2018-06-28T03:48:30.599Z,1057.93
2018-06-28T03:49:30.596Z,1057.91
2018-06-28T03:50:30.583Z,1058.03
2018-06-28T03:51:30.592Z,1057.69
2018-06-28T03:52:30.580Z,1057.55
2018-06-28T03:53:30.583Z,1057.63
2018-06-28T03:54:30.595Z,1057.69
2018-06-28T03:55:30.614Z,1057.58
2018-06-28T03:56:30.595Z,1058.03
2018-06-28T03:57:30.612Z,1057.75
2018-06-28T03:58:30.598Z,1058.15
2018-06-28T03:59:30.614Z,1058.01
2018-06-28T04:00:30.634Z,1057.99
2018-06-28T04:01:30.606Z,1057.97
2018-06-28T04:02:30.582Z,1057.96
2018-06-28T04:03:30.648Z,1057.75
2018-06-28T04:04:30.602Z,1057.83
2018-06-28T04:05:30.616Z,1057.92
2018-06-28T04:06:30.639Z,1057.83
2018-06-28T04:07:30.647Z,1058.02
2018-06-28T04:08:30.652Z,1058.32
2018-06-28T04:09:30.635Z,1058.34
2018-06-28T04:10:30.664Z,1058.52
2018-06-28T04:11:30.630Z,1058.69
2018-06-28T04:12:30.622Z,1058.58
2018-06-28T04:13:30.641Z,1058.36
2018-06-28T04:14:30.611Z,1058.41
2018-06-28T04:15:30.620Z,1058.17
2018-06-28T04:16:30.648Z,1058.15
2018-06-28T04:17:30.635Z,1058.07
2018-06-28T04:18:30.665Z,1057.64
2018-06-28T04:19:30.623Z,1057.64
2018-06-28T04:20:30.628Z,1057.53
2018-06-28T04:21:30.639Z,1057.52
2018-06-28T04:22:30.642Z,1057.64
2018-06-28T04:23:30.623Z,1057.6
2018-06-28T04:24:30.632Z,1058.12
2018-06-28T04:25:30.646Z,1058.12
2018-06-28T04:26:30.649Z,1058.16
2018-06-28T04:27:30.731Z,1058.43
2018-06-28T04:28:30.690Z,1058.67
2018-06-28T04:29:30.685Z,1059.17
2018-06-28T04:30:30.639Z,1059.09
2018-06-28T04:31:30.673Z,1059.03
2018-06-28T04:32:30.652Z,1058.96
2018-06-28T04:33:30.700Z,1058.93
2018-06-28T04:34:30.653Z,1058.78
2018-06-28T04:35:30.678Z,1058.62
2018-06-28T04:36:30.688Z,1058.39
2018-06-28T04:37:30.682Z,1058.21
2018-06-28T04:38:30.692Z,1057.87
2018-06-28T04:39:30.674Z,1058
2018-06-28T04:40:30.684Z,1057.55
2018-06-28T04:41:30.668Z,1057.41
2018-06-28T04:42:30.680Z,1057.15
2018-06-28T04:43:30.698Z,1057.19
2018-06-28T04:44:30.663Z,1056.79
2018-06-28T04:45:30.665Z,1056.87
2018-06-28T04:46:30.672Z,1056.52
2018-06-28T04:47:30.699Z,1056.39
2018-06-28T04:48:30.731Z,1056.37
2018-06-28T04:49:30.692Z,1056.23
2018-06-28T04:50:30.694Z,1056.27
2018-06-28T04:51:30.671Z,1056
2018-06-28T04:52:30.685Z,1056.02
2018-06-28T04:53:30.791Z,1055.66
2018-06-28T04:54:30.725Z,1055.73
2018-06-28T04:55:30.698Z,1055.51
2018-06-28T04:56:30.684Z,1055.61
2018-06-28T04:57:30.703Z,1055.21
2018-06-28T04:58:30.696Z,1055.39
2018-06-28T04:59:30.705Z,1055.1
2018-06-28T05:00:32.125Z,1055.86
2018-06-28T05:01:30.719Z,1055.99
2018-06-28T05:02:30.744Z,1057.33
2018-06-28T05:03:30.766Z,1057.85
2018-06-28T05:04:30.734Z,1058.22
2018-06-28T05:05:30.772Z,1058.93
2018-06-28T05:06:31.035Z,1059.28
2018-06-28T05:07:30.742Z,1059.23
2018-06-28T05:08:30.733Z,1059.15
2018-06-28T05:09:30.716Z,1059.12
2018-06-28T05:10:30.735Z,1059.11
2018-06-28T05:11:30.716Z,1059.33
2018-06-28T05:12:30.715Z,1059.27
2018-06-28T05:13:30.744Z,1059.75
2018-06-28T05:14:30.736Z,1059.94
2018-06-28T05:15:30.732Z,1060.69
2018-06-28T05:16:30.770Z,1061.21
2018-06-28T05:17:30.771Z,1061.03
2018-06-28T05:18:30.729Z,1060.8
2018-06-28T05:19:30.778Z,1060.49
2018-06-28T05:20:30.744Z,1060
2018-06-28T05:21:30.728Z,1060.12
2018-06-28T05:22:30.762Z,1060.07
2018-06-28T05:23:30.769Z,1060.85
2018-06-28T05:24:30.750Z,1061.89
2018-06-28T05:25:30.748Z,1063.06
2018-06-28T05:26:30.745Z,1064.08
2018-06-28T05:27:30.762Z,1064.51
2018-06-28T05:28:30.830Z,1064.36
2018-06-28T05:29:30.772Z,1064.43
2018-06-28T05:30:30.799Z,1064.69
2018-06-28T05:31:30.779Z,1065.36
2018-06-28T05:32:30.764Z,1065.55
2018-06-28T05:33:30.755Z,1065.43
2018-06-28T05:34:30.783Z,1065.52
2018-06-28T05:35:30.789Z,1066.12
2018-06-28T05:36:30.787Z,1066.28
2018-06-28T05:37:30.796Z,1066.4
2018-06-28T05:38:30.778Z,1066.18
2018-06-28T05:39:30.786Z,1066.11
2018-06-28T05:40:30.763Z,1066.01
2018-06-28T05:41:30.770Z,1065.36
2018-06-28T05:42:30.779Z,1065.68
2018-06-28T05:43:30.807Z,1065.9
2018-06-28T05:44:30.777Z,1066.2
2018-06-28T05:45:30.772Z,1066.57
2018-06-28T05:46:30.779Z,1067.08
2018-06-28T05:47:30.786Z,1067.51
2018-06-28T05:48:30.817Z,1068.19
2018-06-28T05:49:30.795Z,1068.81
2018-06-28T05:50:30.786Z,1068.96
2018-06-28T05:51:30.796Z,1069.57
2018-06-28T05:52:30.803Z,1069.62
2018-06-28T05:53:30.804Z,1069.86
2018-06-28T05:54:30.817Z,1070.09
2018-06-28T05:55:30.816Z,1069.93
2018-06-28T05:56:30.791Z,1069.84
2018-06-28T05:57:30.809Z,1070.16
2018-06-28T05:58:30.809Z,1070.45
2018-06-28T05:59:30.813Z,1070.64
2018-06-28T06:00:30.816Z,1071.04
2018-06-28T06:01:30.803Z,1071.65
2018-06-28T06:02:30.804Z,1072.71
2018-06-28T06:03:30.814Z,1073.18
2018-06-28T06:04:30.826Z,1073.51
2018-06-28T06:05:30.825Z,1073.76
2018-06-28T06:06:30.835Z,1074.06
2018-06-28T06:07:30.822Z,1073.94
2018-06-28T06:08:30.814Z,1073.73
2018-06-28T06:09:30.805Z,1073.66
2018-06-28T06:10:30.829Z,1074.02
2018-06-28T06:11:30.812Z,1074.49
2018-06-28T06:12:30.817Z,1074.78
2018-06-28T06:13:30.829Z,1074.88
2018-06-28T06:14:30.840Z,1074.5
2018-06-28T06:15:30.840Z,1074.31
2018-06-28T06:16:30.844Z,1073.81
2018-06-28T06:17:30.868Z,1073.76
2018-06-28T06:18:30.843Z,1074.01
2018-06-28T06:19:30.867Z,1073.82
2018-06-28T06:20:30.823Z,1073.49
2018-06-28T06:21:30.853Z,1073.44
2018-06-28T06:22:30.842Z,1073.02
2018-06-28T06:23:30.868Z,1072.66
2018-06-28T06:24:30.851Z,1072.02
2018-06-28T06:25:30.853Z,1072.05
2018-06-28T06:26:30.863Z,1071.92
2018-06-28T06:27:30.843Z,1072.32
2018-06-28T06:28:30.888Z,1072.48
2018-06-28T06:29:30.857Z,1073.05
2018-06-28T06:30:30.861Z,1073.65
2018-06-28T06:31:30.901Z,1073.89
2018-06-28T06:32:30.845Z,1074.22
2018-06-28T06:33:30.876Z,1074.44
2018-06-28T06:34:30.860Z,1074.49
2018-06-28T06:35:30.869Z,1074.37
2018-06-28T06:36:30.872Z,1074.35
2018-06-28T06:37:30.883Z,1074.72
2018-06-28T06:38:30.899Z,1074.88
2018-06-28T06:39:30.876Z,1075.22
2018-06-28T06:40:30.872Z,1075.24
2018-06-28T06:41:30.889Z,1075.59
2018-06-28T06:42:30.885Z,1075.77
2018-06-28T06:43:30.875Z,1076.17
2018-06-28T06:44:30.900Z,1076.23
2018-06-28T06:45:30.883Z,1076.54
2018-06-28T06:46:30.889Z,1076.6
2018-06-28T06:47:30.897Z,1076.47
2018-06-28T06:48:30.913Z,1076.42
2018-06-28T06:49:30.880Z,1076.21
2018-06-28T06:50:30.895Z,1076.03
2018-06-28T06:51:30.904Z,1075.5
2018-06-28T06:52:30.897Z,1075.03
2018-06-28T06:53:30.880Z,1074.77
2018-06-28T06:54:30.887Z,1074.31
2018-06-28T06:55:30.894Z,1074.16
2018-06-28T06:56:30.908Z,1073.68
2018-06-28T06:57:30.955Z,1073.48
2018-06-28T06:58:30.923Z,1073.24
2018-06-28T06:59:30.898Z,1073.02
2018-06-28T07:00:30.917Z,1072.69
2018-06-28T07:01:30.923Z,1072.67
2018-06-28T07:02:30.920Z,1072.8
2018-06-28T07:03:30.964Z,1072.6
2018-06-28T07:04:30.937Z,1072.57
2018-06-28T07:05:30.936Z,1072.34
2018-06-28T07:06:30.918Z,1072.04
2018-06-28T07:07:30.922Z,1071.93
2018-06-28T07:08:30.932Z,1071.61
2018-06-28T07:09:30.925Z,1071.59
2018-06-28T07:10:30.997Z,1071.47
2018-06-28T07:11:30.925Z,1071.39
2018-06-28T07:12:30.929Z,1071.07
2018-06-28T07:13:30.966Z,1071.07
2018-06-28T07:14:30.915Z,1071.19
2018-06-28T07:15:31.003Z,1071.39
2018-06-28T07:16:30.957Z,1071.35
2018-06-28T07:17:30.963Z,1071.7
2018-06-28T07:18:30.944Z,1071.82
2018-06-28T07:19:30.948Z,1072.17
2018-06-28T07:20:30.956Z,1072.51
2018-06-28T07:21:30.936Z,1072.5
2018-06-28T07:22:30.950Z,1072.54
2018-06-28T07:23:30.992Z,1072.32
2018-06-28T07:24:30.969Z,1072.51
2018-06-28T07:25:30.986Z,1072.6
2018-06-28T07:26:30.946Z,1072.44
2018-06-28T07:27:30.975Z,1072.42
2018-06-28T07:28:31.080Z,1072.35
2018-06-28T07:29:30.974Z,1072.16
2018-06-28T07:30:30.974Z,1072.37
2018-06-28T07:31:30.986Z,1072.3
2018-06-28T07:32:30.960Z,1072.14
2018-06-28T07:33:30.994Z,1072.13
2018-06-28T07:34:30.995Z,1072.21
2018-06-28T07:35:30.982Z,1071.84
2018-06-28T07:36:30.969Z,1071.66
2018-06-28T07:37:30.974Z,1071.35
2018-06-28T07:38:31.021Z,1071.02
2018-06-28T07:39:31.001Z,1070.97
2018-06-28T07:40:30.985Z,1070.8
2018-06-28T07:41:32.334Z,1070.84
2018-06-28T07:42:31.034Z,1070.98
2018-06-28T07:43:30.987Z,1070.78
2018-06-28T07:44:30.990Z,1071.03
2018-06-28T07:45:31.019Z,1070.8
2018-06-28T07:46:30.999Z,1070.69
2018-06-28T07:47:31.032Z,1070.61
2018-06-28T07:48:31.551Z,1070.28
2018-06-28T07:49:30.996Z,1070.24
2018-06-28T07:50:31.000Z,1070.06
2018-06-28T07:51:31.040Z,1070.31
2018-06-28T07:52:31.016Z,1070.57
2018-06-28T07:53:31.019Z,1070.28
2018-06-28T07:54:31.025Z,1070.28
2018-06-28T07:55:31.013Z,1070.58
2018-06-28T07:56:31.013Z,1070.55
2018-06-28T07:57:30.996Z,1070.81
2018-06-28T07:58:31.056Z,1071.12
2018-06-28T07:59:31.040Z,1070.99
2018-06-28T08:00:31.023Z,1070.82
2018-06-28T08:01:31.029Z,1070.8
2018-06-28T08:02:31.034Z,1070.79
2018-06-28T08:03:31.064Z,1070.82
2018-06-28T08:04:31.041Z,1070.76
2018-06-28T08:05:31.020Z,1070.61
2018-06-28T08:06:31.026Z,1070.54
2018-06-28T08:13:09.443Z,1069.22
2018-06-28T08:14:09.392Z,1068.7
2018-06-28T08:15:09.427Z,1068.82
2018-06-28T08:16:09.412Z,1068.53
2018-06-28T08:17:09.448Z,1068.59
2018-06-28T08:18:09.428Z,1068.39
2018-06-28T08:19:09.403Z,1068.5
2018-06-28T08:20:09.415Z,1068.36
2018-06-28T08:21:09.414Z,1068.16
2018-06-28T08:22:09.431Z,1068.14
2018-06-28T08:23:09.436Z,1068.05
2018-06-28T08:24:09.409Z,1068.02
2018-06-28T08:25:09.420Z,1067.92
2018-06-28T08:26:09.452Z,1067.91
2018-06-28T08:27:09.435Z,1068.02
2018-06-28T08:28:09.441Z,1067.97
2018-06-28T08:29:09.442Z,1067.85
2018-06-28T08:30:09.420Z,1067.66
2018-06-28T08:31:09.436Z,1067.4
2018-06-28T08:32:09.433Z,1066.85
2018-06-28T08:33:09.448Z,1066.84
2018-06-28T08:34:09.447Z,1066.84
2018-06-28T08:35:09.444Z,1066.77
2018-06-28T08:36:09.512Z,1066.5
2018-06-28T08:37:09.457Z,1066.45
2018-06-28T08:38:09.448Z,1066.52
2018-06-28T08:39:09.495Z,1066.52
2018-06-28T08:40:09.986Z,1066.25
2018-06-28T08:41:09.447Z,1066.14
2018-06-28T08:42:09.455Z,1065.7
2018-06-28T08:43:09.473Z,1065.48
2018-06-28T08:47:39.528Z,1064.35
2018-06-28T08:48:39.213Z,1064.44
2018-06-28T08:49:39.197Z,1064.23
2018-06-28T08:50:39.225Z,1064.08
2018-06-28T08:51:39.232Z,1064.14
2018-06-28T08:52:39.246Z,1064.14
2018-06-28T08:53:39.222Z,1064.05
2018-06-28T08:54:39.199Z,1064.12
2018-06-28T08:55:39.212Z,1064.13
2018-06-28T08:56:39.214Z,1063.79
2018-06-28T08:57:39.232Z,1063.88
2018-06-28T08:58:39.292Z,1063.92
2018-06-28T08:59:39.213Z,1063.69
2018-06-28T09:00:39.213Z,1063.57
2018-06-28T09:01:39.217Z,1063.45
2018-06-28T09:02:39.224Z,1063.18
2018-06-28T09:03:39.235Z,1063.23
2018-06-28T09:04:39.235Z,1063.02
2018-06-28T09:05:39.283Z,1062.8
2018-06-28T09:06:39.227Z,1062.4
2018-06-28T09:07:39.231Z,1062.05
2018-06-28T09:08:39.238Z,1062.09
2018-06-28T09:09:39.251Z,1061.79
2018-06-28T09:10:39.227Z,1061.74
2018-06-28T09:11:39.258Z,1061.66
2018-06-28T09:12:39.249Z,1061.37
2018-06-28T09:13:39.288Z,1061.13
2018-06-28T09:14:39.276Z,1061.13
2018-06-28T09:15:39.241Z,1060.97
2018-06-28T09:16:39.242Z,1060.84
2018-06-28T09:17:39.250Z,1060.65
2018-06-28T09:18:39.264Z,1060.31
2018-06-28T09:19:39.293Z,1060.37
2018-06-28T09:20:39.241Z,1060.19
2018-06-28T09:21:39.247Z,1060.09
2018-06-28T09:22:39.335Z,1059.95
2018-06-28T09:23:39.264Z,1059.77
2018-06-28T09:24:39.269Z,1059.95
2018-06-28T09:25:39.275Z,1059.75
2018-06-28T09:26:39.257Z,1059.65
2018-06-28T09:27:39.258Z,1059.61
2018-06-28T09:28:39.265Z,1059.6
2018-06-28T09:29:39.284Z,1059.44
2018-06-28T09:30:39.257Z,1059.6
2018-06-28T09:31:39.264Z,1059.3
2018-06-28T09:32:39.270Z,1059.18
2018-06-28T09:33:39.281Z,1059.28
2018-06-28T09:34:39.282Z,1059.17
2018-06-28T09:35:39.289Z,1058.95
2018-06-28T09:36:39.269Z,1058.95
2018-06-28T09:37:39.286Z,1058.75
2018-06-28T09:38:39.284Z,1058.79
2018-06-28T09:39:39.313Z,1058.67
2018-06-28T09:40:39.308Z,1058.7
2018-06-28T09:41:39.280Z,1058.25
2018-06-28T09:42:39.278Z,1058.34
2018-06-28T09:43:39.293Z,1058.3
2018-06-28T09:44:39.293Z,1058.24
2018-06-28T09:45:39.297Z,1058.15
2018-06-28T09:46:39.308Z,1058.24
2018-06-28T09:47:39.295Z,1057.88
2018-06-28T09:48:39.360Z,1057.96
2018-06-28T09:49:39.308Z,1058.03
2018-06-28T09:50:39.343Z,1057.68
2018-06-28T09:51:39.298Z,1057.81
2018-06-28T09:52:39.319Z,1057.82
2018-06-28T09:53:39.302Z,1057.54
2018-06-28T09:54:39.339Z,1057.55
2018-06-28T09:55:39.316Z,1057.61
2018-06-28T09:56:39.334Z,1057.48
2018-06-28T09:57:39.304Z,1057.59
2018-06-28T09:58:39.319Z,1057.38
2018-06-28T09:59:39.319Z,1057.22
2018-06-28T10:00:39.324Z,1057.21
2018-06-28T10:01:39.330Z,1057.1
2018-06-28T10:02:39.343Z,1056.88
2018-06-28T10:03:39.350Z,1056.88
2018-06-28T10:04:39.325Z,1056.93
2018-06-28T10:05:39.417Z,1056.8
2018-06-28T10:06:39.338Z,1056.53
2018-06-28T10:07:39.350Z,1056.48
2018-06-28T10:08:39.328Z,1056.72
2018-06-28T10:09:39.337Z,1056.43
2018-06-28T10:10:39.343Z,1056.5
2018-06-28T10:11:39.356Z,1056.12
2018-06-28T10:12:39.370Z,1056.11
2018-06-28T10:13:39.357Z,1056.07
2018-06-28T10:14:39.425Z,1056.09
2018-06-28T10:15:39.355Z,1056.13
2018-06-28T10:16:39.362Z,1056.28
2018-06-28T10:17:39.361Z,1056.08
2018-06-28T10:18:39.376Z,1056.37
2018-06-28T10:19:39.376Z,1056.12
2018-06-28T10:20:39.360Z,1056.01
2018-06-28T10:21:39.375Z,1056
2018-06-28T10:22:39.382Z,1056.13
2018-06-28T10:23:39.376Z,1056.07
2018-06-28T10:24:39.424Z,1055.87
2018-06-28T10:25:39.369Z,1056.02
2018-06-28T10:26:39.365Z,1055.89
2018-06-28T10:27:39.380Z,1055.95
2018-06-28T10:28:39.384Z,1055.74
2018-06-28T10:29:39.444Z,1055.53
2018-06-28T10:30:39.371Z,1055.54
2018-06-28T10:31:39.383Z,1055.45
2018-06-28T10:32:39.417Z,1055.63
2018-06-28T10:33:39.395Z,1055.45
2018-06-28T10:34:39.391Z,1055.46
2018-06-28T10:35:39.411Z,1055.44
2018-06-28T10:36:39.381Z,1055.24
2018-06-28T10:37:39.413Z,1055.31
2018-06-28T10:38:39.406Z,1055.38
2018-06-28T10:39:39.410Z,1055.3
2018-06-28T10:40:39.383Z,1055.07
2018-06-28T10:41:39.421Z,1055.26
2018-06-28T10:42:39.398Z,1054.93
2018-06-28T10:43:39.403Z,1054.96
2018-06-28T10:44:39.436Z,1054.9
2018-06-28T10:45:39.423Z,1054.98
2018-06-28T10:46:39.403Z,1055.14
2018-06-28T10:47:39.845Z,1054.74
2018-06-28T10:48:39.417Z,1054.66
2018-06-28T10:49:39.427Z,1054.71
2018-06-28T10:50:39.429Z,1054.48
2018-06-28T10:51:39.452Z,1054.62
2018-06-28T10:52:39.441Z,1054.39
2018-06-28T10:53:39.421Z,1054.45
2018-06-28T10:54:39.442Z,1054.32
2018-06-28T10:55:39.434Z,1054.07
2018-06-28T10:56:39.433Z,1054.11
2018-06-28T10:57:39.491Z,1053.95
2018-06-28T10:58:39.430Z,1053.7
2018-06-28T10:59:39.426Z,1053.48
2018-06-28T11:00:39.434Z,1053.59
2018-06-28T11:01:39.475Z,1053.59
2018-06-28T11:02:39.432Z,1053.54
2018-06-28T11:03:39.438Z,1053.52
2018-06-28T11:04:39.459Z,1053.46
2018-06-28T11:05:39.452Z,1053.52
2018-06-28T11:06:39.482Z,1053.5
2018-06-28T11:07:39.519Z,1053.34
2018-06-28T11:08:39.498Z,1053.17
2018-06-28T11:09:39.448Z,1053.05
2018-06-28T11:10:39.451Z,1052.81
2018-06-28T11:11:39.459Z,1052.91
2018-06-28T11:12:39.487Z,1053.11
2018-06-28T11:13:39.481Z,1053.28
2018-06-28T11:14:39.461Z,1052.85
2018-06-28T11:15:39.485Z,1052.82
2018-06-28T11:16:39.551Z,1052.88
2018-06-28T11:17:39.854Z,1052.82
2018-06-28T11:18:39.537Z,1052.46
2018-06-28T11:19:39.490Z,1052.43
2018-06-28T11:20:39.496Z,1052.24
2018-06-28T11:21:39.474Z,1052.1
2018-06-28T11:22:39.508Z,1052.07
2018-06-28T11:23:39.484Z,1051.99
2018-06-28T11:24:39.473Z,1052.31
2018-06-28T11:25:39.469Z,1051.76
2018-06-28T11:26:39.511Z,1052.04
2018-06-28T11:27:39.494Z,1051.76
2018-06-28T11:28:39.494Z,1051.62
2018-06-28T11:29:39.479Z,1051.63
2018-06-28T11:30:39.475Z,1051.66
2018-06-28T11:31:39.490Z,1051.64
2018-06-28T11:32:39.500Z,1051.37
2018-06-28T11:33:39.506Z,1051.23
2018-06-28T11:34:39.481Z,1051.14
2018-06-28T11:35:39.500Z,1051.15
2018-06-28T11:36:39.492Z,1050.94
2018-06-28T11:37:39.494Z,1050.74
2018-06-28T11:38:39.510Z,1051
2018-06-28T11:39:39.687Z,1051.03
2018-06-28T11:40:39.581Z,1050.86
2018-06-28T11:41:39.579Z,1050.91
2018-06-28T11:42:39.517Z,1050.74
2018-06-28T11:43:39.522Z,1051.04
2018-06-28T11:44:39.518Z,1050.6
2018-06-28T11:45:39.525Z,1050.52
2018-06-28T11:46:39.506Z,1050.42
2018-06-28T11:47:39.512Z,1050.58
2018-06-28T11:48:39.560Z,1050.16
2018-06-28T11:49:39.531Z,1050.26
2018-06-28T11:50:39.535Z,1050.34
2018-06-28T11:51:39.524Z,1050.09
2018-06-28T11:52:39.527Z,1050.17
2018-06-28T11:53:39.527Z,1050.38
2018-06-28T11:54:39.584Z,1050.18
2018-06-28T11:55:39.514Z,1049.93
2018-06-28T11:56:39.557Z,1050
2018-06-28T11:57:39.527Z,1050.16
2018-06-28T11:58:39.638Z,1049.9
2018-06-28T11:59:39.536Z,1049.83
2018-06-28T12:00:39.558Z,1049.59
2018-06-28T12:01:39.567Z,1049.7
2018-06-28T12:02:39.531Z,1049.96
2018-06-28T12:03:39.538Z,1049.54
2018-06-28T12:04:39.752Z,1049.68
2018-06-28T12:05:39.566Z,1049.5
2018-06-28T12:06:39.560Z,1049.49
2018-06-28T12:07:39.567Z,1049.49
2018-06-28T12:08:39.553Z,1049.37
2018-06-28T12:09:39.568Z,1049.28
2018-06-28T12:10:39.558Z,1049.14
2018-06-28T12:11:39.568Z,1049.17
2018-06-28T12:12:39.553Z,1049.07
2018-06-28T12:13:39.583Z,1048.91
2018-06-28T12:14:39.609Z,1048.89
2018-06-28T12:15:39.617Z,1048.96
2018-06-28T12:16:39.605Z,1048.74
2018-06-28T12:17:39.592Z,1048.82
2018-06-28T12:18:39.586Z,1048.85